Time;durP1;ratioP1;P1;durP2;ratioP2;P2;SDS_P1;SDS_P2;PMS_P1;PMS_P2;Temp;Humidity;BMP_temperature;BMP_pressure;BME280_temperature;BME280_humidity;BME280_pressure;Samples;Min_cycle;Max_cycle;Signal;HPM_P1;HPM_P2
2022/02/14 00:00:34;;;;;;;3.55;2.72;;;7.00;91.10;;;;;;5027528;28;20057;-71
2022/02/14 00:03:04;;;;;;;3.90;2.63;;;7.00;91.00;;;;;;5028768;28;20398;-72
2022/02/14 00:05:32;;;;;;;4.32;3.20;;;7.00;91.00;;;;;;5028784;28;20042;-72
2022/02/14 00:08:00;;;;;;;4.50;2.78;;;7.00;91.00;;;;;;5027744;28;20057;-72
2022/02/14 00:10:28;;;;;;;5.15;2.85;;;7.00;91.00;;;;;;5028075;28;20048;-72
2022/02/14 00:12:56;;;;;;;3.33;2.50;;;7.00;90.90;;;;;;5019549;28;20056;-72
2022/02/14 00:15:23;;;;;;;3.22;2.90;;;7.00;90.90;;;;;;5018981;28;20048;-71
2022/02/14 00:17:52;;;;;;;3.50;3.17;;;7.00;90.90;;;;;;5028548;28;20045;-72
2022/02/14 00:20:20;;;;;;;3.42;2.63;;;7.00;90.80;;;;;;5023801;28;20038;-72
2022/02/14 00:22:48;;;;;;;2.70;2.50;;;7.00;90.80;;;;;;5029805;28;20045;-72
2022/02/14 00:25:19;;;;;;;5.82;3.50;;;7.00;90.70;;;;;;5031913;28;20053;-72
2022/02/14 00:27:47;;;;;;;5.57;2.90;;;7.00;90.70;;;;;;5026004;28;20064;-72
2022/02/14 00:30:17;;;;;;;6.43;2.75;;;6.90;90.70;;;;;;5029323;28;20050;-72
2022/02/14 00:32:44;;;;;;;3.75;3.00;;;6.90;90.70;;;;;;5028700;28;20045;-72
2022/02/14 00:35:14;;;;;;;3.42;2.70;;;6.90;90.60;;;;;;5023030;28;20058;-72
2022/02/14 00:37:42;;;;;;;4.20;3.10;;;6.90;90.60;;;;;;5024574;28;20058;-72
2022/02/14 00:40:11;;;;;;;3.70;3.20;;;7.00;90.60;;;;;;5026798;28;20054;-72
2022/02/14 00:42:38;;;;;;;3.33;2.70;;;6.90;90.60;;;;;;5028787;28;20057;-72
2022/02/14 00:45:07;;;;;;;2.97;2.47;;;7.00;90.60;;;;;;5017544;28;20056;-71
2022/02/14 00:47:34;;;;;;;3.53;2.47;;;6.90;90.60;;;;;;5012446;28;20058;-72
2022/02/14 00:50:03;;;;;;;2.90;2.60;;;7.00;90.50;;;;;;5040040;28;20488;-72
2022/02/14 00:52:31;;;;;;;3.65;2.65;;;7.00;90.40;;;;;;5027615;28;20053;-71
2022/02/14 00:54:59;;;;;;;3.20;2.72;;;7.00;90.40;;;;;;5016550;28;20053;-71
2022/02/14 00:57:27;;;;;;;4.80;2.80;;;6.90;90.40;;;;;;5027325;28;20056;-72
2022/02/14 00:59:55;;;;;;;3.80;2.90;;;6.90;90.40;;;;;;5023687;28;20058;-72
2022/02/14 01:02:25;;;;;;;3.58;2.58;;;6.90;90.40;;;;;;5020293;28;20064;-72
2022/02/14 01:04:54;;;;;;;3.10;2.70;;;6.90;90.40;;;;;;5028868;28;20057;-72
2022/02/14 01:07:23;;;;;;;2.47;2.17;;;6.90;90.40;;;;;;5015114;28;20049;-72
2022/02/14 01:09:51;;;;;;;3.47;2.40;;;6.90;90.40;;;;;;5022750;28;20054;-71
2022/02/14 01:12:18;;;;;;;3.60;2.13;;;6.90;90.30;;;;;;5017289;28;20076;-71
2022/02/14 01:14:46;;;;;;;3.78;2.30;;;6.80;90.30;;;;;;5003397;28;20590;-71
2022/02/14 01:17:14;;;;;;;2.55;2.35;;;6.80;90.30;;;;;;5013864;28;20402;-71
2022/02/14 01:19:42;;;;;;;3.80;2.30;;;6.80;90.30;;;;;;5026528;28;20049;-72
2022/02/14 01:22:10;;;;;;;3.25;2.25;;;6.80;90.30;;;;;;5018100;28;20061;-72
2022/02/14 01:24:38;;;;;;;3.55;2.20;;;6.80;90.20;;;;;;5029238;28;20052;-71
2022/02/14 01:27:06;;;;;;;2.95;2.20;;;6.80;90.20;;;;;;5022346;28;20049;-71
2022/02/14 01:29:34;;;;;;;1.98;1.80;;;6.80;90.10;;;;;;5015272;28;20046;-72
2022/02/14 01:32:02;;;;;;;3.88;2.10;;;6.80;90.10;;;;;;5014112;28;20495;-71
2022/02/14 01:34:30;;;;;;;4.75;1.90;;;6.80;90.10;;;;;;5013790;28;20041;-71
2022/02/14 01:36:57;;;;;;;3.13;1.55;;;6.70;90.10;;;;;;5016097;28;20068;-71
2022/02/14 01:39:28;;;;;;;2.28;1.77;;;6.70;90.00;;;;;;5012074;28;20567;-71
2022/02/14 01:41:59;;;;;;;2.60;1.83;;;6.70;90.10;;;;;;5022722;28;20042;-71
2022/02/14 01:44:42;;;;;;;5.35;1.70;;;6.60;90.10;;;;;;5027538;28;20403;-71
2022/02/14 01:47:11;;;;;;;;;;;6.60;90.10;;;;;;5028512;28;20546;-71
2022/02/14 01:49:39;;;;;;;2.40;1.50;;;6.60;90.20;;;;;;5021568;28;19925;-70
2022/02/14 01:52:08;;;;;;;2.58;1.80;;;6.60;90.10;;;;;;5030042;28;20052;-71
2022/02/14 01:54:38;;;;;;;2.88;1.85;;;6.60;90.00;;;;;;5014653;28;20046;-71
2022/02/14 01:57:07;;;;;;;4.13;1.80;;;6.60;90.00;;;;;;5016110;28;20757;-72
2022/02/14 01:59:36;;;;;;;1.70;1.45;;;6.60;90.00;;;;;;5019699;28;20406;-71
2022/02/14 02:02:06;;;;;;;2.80;1.52;;;6.70;89.90;;;;;;5029476;28;20037;-72
2022/02/14 02:04:34;;;;;;;6.55;2.17;;;6.60;89.80;;;;;;5018512;28;20046;-71
2022/02/14 02:07:04;;;;;;;1.50;1.20;;;6.60;89.80;;;;;;5029589;28;20041;-71
2022/02/14 02:09:31;;;;;;;1.17;1.08;;;6.60;89.70;;;;;;5013670;28;20499;-71
2022/02/14 02:14:45;;;;;;;1.20;1.10;;;6.60;89.50;;;;;;5019880;28;20407;-72
2022/02/14 02:17:13;;;;;;;2.55;1.40;;;6.60;89.50;;;;;;5027640;28;20037;-71
2022/02/14 02:19:41;;;;;;;1.40;1.30;;;6.60;89.50;;;;;;5029743;28;20057;-71
2022/02/14 02:22:09;;;;;;;4.22;1.05;;;6.60;89.50;;;;;;5026005;28;20057;-72
2022/02/14 02:24:48;;;;;;;1.45;1.10;;;6.60;89.50;;;;;;5040048;28;20052;-71
2022/02/14 02:27:16;;;;;;;1.35;0.90;;;6.50;89.50;;;;;;5044234;28;20515;-71
2022/02/14 02:29:44;;;;;;;1.80;1.15;;;6.60;89.40;;;;;;5017769;28;20056;-72
2022/02/14 02:32:12;;;;;;;1.05;0.95;;;6.60;89.30;;;;;;5019872;28;20046;-71
2022/02/14 02:34:42;;;;;;;1.17;1.08;;;6.60;89.30;;;;;;5029102;28;20045;-71
2022/02/14 02:37:17;;;;;;;1.42;1.20;;;6.60;89.30;;;;;;5021115;28;20061;-71
2022/02/14 02:39:46;;;;;;;1.33;1.08;;;6.60;89.30;;;;;;5023412;28;20053;-73
2022/02/14 02:42:15;;;;;;;1.30;1.20;;;6.50;89.30;;;;;;5018295;28;20042;-72
2022/02/14 02:44:43;;;;;;;2.35;1.38;;;6.60;89.30;;;;;;5029253;28;20052;-72
2022/02/14 02:47:13;;;;;;;1.90;1.70;;;6.50;89.30;;;;;;5029299;28;20406;-72
2022/02/14 02:49:42;;;;;;;1.80;1.70;;;6.50;89.30;;;;;;5044469;28;20049;-72
2022/02/14 02:52:12;;;;;;;1.85;1.67;;;6.50;89.30;;;;;;5024515;28;20479;-72
2022/02/14 02:54:40;;;;;;;1.63;1.52;;;6.50;89.40;;;;;;5016946;28;20049;-72
2022/02/14 02:57:08;;;;;;;1.83;1.67;;;6.50;89.40;;;;;;5026214;28;20045;-72
2022/02/14 02:59:42;;;;;;;4.72;1.60;;;6.50;89.30;;;;;;5020466;28;20052;-71
2022/02/14 03:02:10;;;;;;;2.58;1.65;;;6.50;89.30;;;;;;5027626;28;20041;-71
2022/02/14 03:04:37;;;;;;;2.67;1.30;;;6.50;89.30;;;;;;5029912;28;20499;-71
2022/02/14 03:07:05;;;;;;;1.60;1.50;;;6.50;89.20;;;;;;5016711;28;20056;-71
2022/02/14 03:09:33;;;;;;;2.85;2.00;;;6.50;89.20;;;;;;5016651;28;20049;-71
2022/02/14 03:12:01;;;;;;;2.58;1.63;;;6.50;89.30;;;;;;5014995;28;20054;-72
2022/02/14 03:14:29;;;;;;;2.88;1.70;;;6.50;89.30;;;;;;5015244;28;20042;-72
2022/02/14 03:16:56;;;;;;;5.93;1.63;;;6.50;89.20;;;;;;5021873;28;20045;-71
2022/02/14 03:19:24;;;;;;;2.83;1.60;;;6.50;89.20;;;;;;5029772;28;20061;-71
2022/02/14 03:21:51;;;;;;;2.80;1.52;;;6.50;89.20;;;;;;5029398;28;20487;-71
2022/02/14 03:24:19;;;;;;;2.65;1.70;;;6.40;89.30;;;;;;5015400;28;20049;-71
2022/02/14 03:26:47;;;;;;;2.55;1.88;;;6.40;89.30;;;;;;5015547;28;20042;-71
2022/02/14 03:29:16;;;;;;;4.57;1.90;;;6.40;89.40;;;;;;5032867;28;20056;-70
2022/02/14 03:31:43;;;;;;;2.13;1.42;;;6.30;89.40;;;;;;5023038;28;20042;-71
2022/02/14 03:34:11;;;;;;;2.63;1.48;;;6.30;89.60;;;;;;5011434;28;20060;-70
2022/02/14 03:36:39;;;;;;;1.92;1.40;;;6.30;89.70;;;;;;5025779;28;20040;-71
2022/02/14 03:39:06;;;;;;;2.53;1.80;;;6.30;89.60;;;;;;5027857;28;20519;-70
2022/02/14 03:41:34;;;;;;;3.17;1.33;;;6.30;89.70;;;;;;5026406;28;20655;-71
2022/02/14 03:44:02;;;;;;;3.28;1.58;;;6.20;89.70;;;;;;5021754;28;20052;-71
2022/02/14 03:46:29;;;;;;;3.53;1.70;;;6.30;89.70;;;;;;5018704;28;20065;-71
2022/02/14 03:48:57;;;;;;;3.13;1.40;;;6.20;89.60;;;;;;5019788;28;20068;-71
2022/02/14 03:51:24;;;;;;;4.45;1.52;;;6.20;89.60;;;;;;5028690;28;20037;-71
2022/02/14 03:53:52;;;;;;;1.02;1.00;;;6.10;89.60;;;;;;5018886;28;20040;-71
2022/02/14 03:56:20;;;;;;;2.40;1.58;;;6.00;89.70;;;;;;5018877;28;20042;-71
2022/02/14 03:58:47;;;;;;;1.17;1.08;;;5.90;89.80;;;;;;5011526;28;20049;-71
2022/02/14 04:01:15;;;;;;;1.10;1.00;;;5.90;89.90;;;;;;5016278;28;20104;-71
2022/02/14 04:03:42;;;;;;;1.42;1.25;;;5.80;89.90;;;;;;5021577;28;20260;-71
2022/02/14 04:06:10;;;;;;;2.00;1.20;;;5.80;89.90;;;;;;5012956;28;20046;-71
2022/02/14 04:08:38;;;;;;;1.58;1.02;;;5.80;90.00;;;;;;5028142;28;20041;-71
2022/02/14 04:11:06;;;;;;;3.95;1.20;;;5.80;90.00;;;;;;5027725;28;20045;-71
2022/02/14 04:13:33;;;;;;;2.03;1.40;;;5.80;89.90;;;;;;5028940;28;20053;-71
2022/02/14 04:16:01;;;;;;;2.35;1.10;;;5.80;89.90;;;;;;5029228;28;20045;-71
2022/02/14 04:18:29;;;;;;;4.03;1.30;;;5.90;89.80;;;;;;5028898;28;20411;-71
2022/02/14 04:20:56;;;;;;;1.05;0.90;;;5.90;89.80;;;;;;5015294;28;20041;-71
2022/02/14 04:23:24;;;;;;;2.08;0.85;;;5.90;89.80;;;;;;5023947;28;20041;-71
2022/02/14 04:25:55;;;;;;;3.72;0.95;;;5.90;89.60;;;;;;5029165;28;20053;-71
2022/02/14 04:28:22;;;;;;;0.93;0.80;;;6.00;89.60;;;;;;5011369;28;20050;-71
2022/02/14 04:30:50;;;;;;;1.67;0.95;;;6.00;89.50;;;;;;5011113;28;20049;-69
2022/02/14 04:33:18;;;;;;;0.77;0.68;;;6.00;89.50;;;;;;5011448;28;20050;-69
2022/02/14 04:35:45;;;;;;;3.78;1.00;;;5.90;89.50;;;;;;5010870;28;20443;-69
2022/02/14 04:38:13;;;;;;;1.02;0.80;;;5.90;89.30;;;;;;5019882;28;20399;-69
2022/02/14 04:40:41;;;;;;;4.72;1.00;;;5.90;89.30;;;;;;5013268;28;20046;-68
2022/02/14 04:43:08;;;;;;;5.38;0.80;;;5.80;89.30;;;;;;5014207;28;20128;-68
2022/02/14 04:45:36;;;;;;;1.90;0.95;;;5.80;89.40;;;;;;5020226;28;20049;-68
2022/02/14 04:48:05;;;;;;;1.73;1.30;;;5.80;89.60;;;;;;5013146;28;20062;-69
2022/02/14 04:50:32;;;;;;;4.00;1.40;;;5.70;89.70;;;;;;5025175;28;20041;-69
2022/02/14 04:53:00;;;;;;;3.35;1.55;;;5.70;89.90;;;;;;5014129;28;20042;-69
2022/02/14 04:55:28;;;;;;;2.53;1.20;;;5.70;90.00;;;;;;5015867;28;20061;-69
2022/02/14 04:57:55;;;;;;;4.72;1.42;;;5.60;90.20;;;;;;5014007;28;20399;-69
2022/02/14 05:00:23;;;;;;;3.38;1.60;;;5.70;90.30;;;;;;5019572;28;20037;-70
2022/02/14 05:02:51;;;;;;;2.85;1.33;;;5.60;90.30;;;;;;5013986;28;20065;-70
2022/02/14 05:05:20;;;;;;;2.80;1.33;;;5.60;90.50;;;;;;5013905;28;20069;-70
2022/02/14 05:07:50;;;;;;;3.83;1.73;;;5.60;90.60;;;;;;5011691;28;20049;-70
2022/02/14 05:10:19;;;;;;;3.40;1.73;;;5.60;90.60;;;;;;5025544;28;20038;-71
2022/02/14 05:12:47;;;;;;;5.00;1.80;;;5.60;90.60;;;;;;5026540;28;20037;-70
2022/02/14 05:15:14;;;;;;;2.40;2.00;;;5.50;90.70;;;;;;5020078;28;20499;-70
2022/02/14 05:17:42;;;;;;;10.57;4.97;;;5.60;90.80;;;;;;5043831;28;20053;-70
2022/02/14 05:20:10;;;;;;;2.45;1.48;;;5.60;90.80;;;;;;5014334;28;20396;-70
2022/02/14 05:22:38;;;;;;;3.15;1.33;;;5.60;90.90;;;;;;5014879;28;20392;-70
2022/02/14 05:25:08;;;;;;;5.55;1.48;;;5.60;90.90;;;;;;5019779;28;20046;-70
2022/02/14 05:27:36;;;;;;;2.88;1.40;;;5.70;90.90;;;;;;5016478;28;20034;-70
2022/02/14 05:30:05;;;;;;;5.25;1.08;;;5.70;90.90;;;;;;5027698;28;20041;-69
2022/02/14 05:32:32;;;;;;;2.08;1.30;;;5.60;90.90;;;;;;5020645;28;20422;-69
2022/02/14 05:35:01;;;;;;;3.38;1.30;;;5.70;90.90;;;;;;5014525;28;20050;-69
2022/02/14 05:37:28;;;;;;;1.90;1.10;;;5.70;90.90;;;;;;5012259;28;20049;-69
2022/02/14 05:39:56;;;;;;;4.15;2.60;;;5.60;90.90;;;;;;5012108;28;20046;-69
2022/02/14 05:42:24;;;;;;;4.22;2.00;;;5.60;91.00;;;;;;5012094;28;20046;-69
2022/02/14 05:44:51;;;;;;;4.80;1.90;;;5.60;91.00;;;;;;5012883;28;20046;-70
2022/02/14 05:47:19;;;;;;;3.65;1.40;;;5.70;91.00;;;;;;5015369;28;20042;-70
2022/02/14 05:49:47;;;;;;;1.83;1.10;;;5.70;91.00;;;;;;5016044;28;20065;-70
2022/02/14 05:52:14;;;;;;;2.70;0.88;;;5.60;90.90;;;;;;5015464;28;20049;-70
2022/02/14 05:54:42;;;;;;;0.88;0.50;;;5.60;90.80;;;;;;5019552;28;20054;-70
2022/02/14 05:57:10;;;;;;;1.77;0.50;;;5.70;90.70;;;;;;5044898;28;20053;-70
2022/02/14 05:59:38;;;;;;;5.70;0.90;;;5.70;90.60;;;;;;5030393;28;20054;-69
2022/02/14 06:02:06;;;;;;;2.50;0.70;;;5.60;90.60;;;;;;5030356;28;20049;-69
2022/02/14 06:04:34;;;;;;;2.58;0.55;;;5.60;90.60;;;;;;5031287;28;20402;-69
2022/02/14 06:07:01;;;;;;;1.40;0.50;;;5.70;90.70;;;;;;5014838;28;20052;-68
2022/02/14 06:09:32;;;;;;;4.47;0.75;;;5.70;90.60;;;;;;5027937;28;20064;-68
2022/02/14 06:12:00;;;;;;;2.67;0.90;;;5.70;90.70;;;;;;5027974;28;20042;-69
2022/02/14 06:14:28;;;;;;;0.80;0.55;;;5.60;90.70;;;;;;5017198;28;20122;-69
2022/02/14 06:16:56;;;;;;;2.22;0.75;;;5.60;90.80;;;;;;5019612;28;20052;-69
2022/02/14 06:19:24;;;;;;;2.25;0.63;;;5.60;90.80;;;;;;5022912;28;20049;-69
2022/02/14 06:21:53;;;;;;;4.30;0.80;;;5.60;90.90;;;;;;5025590;28;20432;-69
2022/02/14 06:24:21;;;;;;;2.53;0.70;;;5.60;90.90;;;;;;5015703;28;20034;-69
2022/02/14 06:26:49;;;;;;;1.80;0.68;;;5.60;91.00;;;;;;5013220;28;20401;-69
2022/02/14 06:29:17;;;;;;;1.52;0.50;;;5.60;91.00;;;;;;5025102;28;20048;-69
2022/02/14 06:31:44;;;;;;;1.90;0.50;;;5.60;90.80;;;;;;5022259;28;20046;-70
2022/02/14 06:34:12;;;;;;;1.08;0.50;;;5.60;90.70;;;;;;5038426;28;20042;-70
2022/02/14 06:36:40;;;;;;;1.23;0.52;;;5.60;90.50;;;;;;5037254;28;20042;-70
2022/02/14 06:39:10;;;;;;;2.08;0.50;;;5.60;90.50;;;;;;5030264;28;20042;-70
2022/02/14 06:41:38;;;;;;;6.72;1.33;;;5.60;90.50;;;;;;5017641;28;20432;-70
2022/02/14 06:44:05;;;;;;;1.00;0.50;;;5.60;90.50;;;;;;5015862;28;20496;-70
2022/02/14 06:46:35;;;;;;;1.38;0.60;;;5.60;90.60;;;;;;5013813;28;20049;-69
2022/02/14 06:49:06;;;;;;;7.65;0.63;;;5.60;90.60;;;;;;5019527;28;20041;-70
2022/02/14 06:51:36;;;;;;;2.70;0.30;;;5.60;90.60;;;;;;5020307;28;20046;-70
2022/02/14 06:54:04;;;;;;;3.25;0.40;;;5.60;90.60;;;;;;5014698;28;20049;-70
2022/02/14 06:56:32;;;;;;;2.65;0.50;;;5.60;90.50;;;;;;5015899;28;20061;-70
2022/02/14 06:58:59;;;;;;;3.50;0.40;;;5.60;90.50;;;;;;5015417;28;20046;-70
2022/02/14 07:01:27;;;;;;;1.38;0.40;;;5.60;90.50;;;;;;5021562;28;20045;-72
2022/02/14 07:03:54;;;;;;;2.38;0.50;;;5.60;90.50;;;;;;5025373;28;20046;-70
2022/02/14 07:06:22;;;;;;;1.05;0.50;;;5.60;90.40;;;;;;5023784;28;20514;-73
2022/02/14 07:08:50;;;;;;;1.65;0.50;;;5.60;90.30;;;;;;5024666;28;20061;-72
2022/02/14 07:11:23;;;;;;;0.68;0.32;;;5.60;90.40;;;;;;5027295;28;20050;-72
2022/02/14 07:13:50;;;;;;;1.92;0.43;;;5.60;90.10;;;;;;5023513;28;20050;-73
2022/02/14 07:16:18;;;;;;;3.22;0.60;;;5.60;90.00;;;;;;5027524;28;20052;-73
2022/02/14 07:18:45;;;;;;;1.20;0.32;;;5.60;89.90;;;;;;5027960;28;20042;-72
2022/02/14 07:21:14;;;;;;;1.95;0.38;;;5.70;89.90;;;;;;5027261;28;20049;-73
2022/02/14 07:23:42;;;;;;;1.00;0.13;;;5.60;89.80;;;;;;5025343;28;20053;-72
2022/02/14 07:26:10;;;;;;;0.30;0.20;;;5.70;89.70;;;;;;5023891;28;20046;-72
2022/02/14 07:28:44;;;;;;;0.45;0.22;;;5.70;89.30;;;;;;5023105;28;20057;-72
2022/02/14 07:31:11;;;;;;;1.10;0.20;;;5.60;89.20;;;;;;5027132;28;20056;-73
2022/02/14 07:33:39;;;;;;;4.47;0.60;;;5.60;89.00;;;;;;5028384;28;20044;-73
2022/02/14 07:36:09;;;;;;;0.60;0.30;;;5.60;89.00;;;;;;5021454;28;20049;-72
2022/02/14 07:38:37;;;;;;;0.57;0.50;;;5.60;89.00;;;;;;5016955;28;20052;-72
2022/02/14 07:41:05;;;;;;;1.38;0.30;;;5.60;89.20;;;;;;5022912;28;20057;-71
2022/02/14 07:43:32;;;;;;;0.57;0.30;;;5.60;89.20;;;;;;5035850;28;20054;-72
2022/02/14 07:46:00;;;;;;;0.88;0.30;;;5.60;89.10;;;;;;5028902;28;20041;-72
2022/02/14 07:48:28;;;;;;;0.40;0.15;;;5.60;89.10;;;;;;5016108;28;20046;-72
2022/02/14 07:50:55;;;;;;;0.20;0.20;;;5.50;88.90;;;;;;5036515;28;20371;-72
2022/02/14 07:53:25;;;;;;;0.70;0.30;;;5.50;88.90;;;;;;5009042;28;20050;-73
2022/02/14 07:55:53;;;;;;;0.50;0.50;;;5.50;89.00;;;;;;5029998;28;20542;-72
2022/02/14 07:58:20;;;;;;;0.55;0.40;;;5.60;89.10;;;;;;5014874;28;20041;-72
2022/02/14 08:00:48;;;;;;;0.50;0.40;;;5.50;89.30;;;;;;5026321;28;20502;-73
2022/02/14 08:03:18;;;;;;;0.95;0.30;;;5.50;89.30;;;;;;5018519;28;20056;-72
2022/02/14 08:05:45;;;;;;;0.95;0.32;;;5.60;89.40;;;;;;5030349;28;20487;-72
2022/02/14 08:08:13;;;;;;;1.10;0.40;;;5.50;89.40;;;;;;5031345;28;20048;-72
2022/02/14 08:10:54;;;;;;;1.17;0.20;;;5.50;89.60;;;;;;5040369;28;20061;-72
2022/02/14 08:13:22;;;;;;;2.58;0.50;;;5.50;89.60;;;;;;5038942;28;20060;-71
2022/02/14 08:15:49;;;;;;;0.63;0.20;;;5.40;89.60;;;;;;5033370;28;20056;-71
2022/02/14 08:18:17;;;;;;;0.95;0.20;;;5.40;89.50;;;;;;5031985;28;20487;-70
2022/02/14 08:20:45;;;;;;;0.52;0.20;;;5.40;89.60;;;;;;5012575;28;20052;-70
2022/02/14 08:23:12;;;;;;;0.52;0.20;;;5.40;89.50;;;;;;5030154;28;20041;-70
2022/02/14 08:25:40;;;;;;;0.75;0.10;;;5.40;89.60;;;;;;5032003;28;20045;-71
2022/02/14 08:28:08;;;;;;;0.52;0.20;;;5.30;89.50;;;;;;5032349;28;20072;-71
2022/02/14 08:30:36;;;;;;;2.53;0.40;;;5.30;89.50;;;;;;5031126;28;20403;-71
2022/02/14 08:33:05;;;;;;;0.17;0.10;;;5.30;89.50;;;;;;5032294;28;20509;-71
2022/02/14 08:35:33;;;;;;;0.20;0.10;;;5.30;89.50;;;;;;5036799;28;20124;-71
2022/02/14 08:38:02;;;;;;;0.00;0.00;;;5.30;89.40;;;;;;5020302;28;20073;-71
2022/02/14 08:40:30;;;;;;;0.45;0.45;;;5.30;89.30;;;;;;5022609;28;20034;-71
2022/02/14 08:43:00;;;;;;;0.38;0.20;;;5.30;89.30;;;;;;5029819;28;20064;-71
2022/02/14 08:45:29;;;;;;;0.30;0.20;;;5.40;89.30;;;;;;5031928;28;20041;-72
2022/02/14 08:47:58;;;;;;;0.20;0.10;;;5.40;89.30;;;;;;5030897;28;20511;-72
2022/02/14 08:50:29;;;;;;;0.57;0.10;;;5.40;89.30;;;;;;5031985;28;20390;-71
2022/02/14 08:53:00;;;;;;;1.23;0.38;;;5.40;89.40;;;;;;5033591;28;20053;-72
2022/02/14 08:55:28;;;;;;;0.22;0.20;;;5.40;89.40;;;;;;5036265;28;20041;-71
2022/02/14 08:57:56;;;;;;;0.65;0.20;;;5.40;89.50;;;;;;5036164;28;20053;-72
2022/02/14 09:00:23;;;;;;;0.38;0.08;;;5.40;89.50;;;;;;5036059;28;20048;-71
2022/02/14 09:02:51;;;;;;;0.22;0.22;;;5.40;89.60;;;;;;5036109;28;20060;-71
2022/02/14 09:05:19;;;;;;;0.20;0.20;;;5.40;89.50;;;;;;5035865;28;20395;-71
2022/02/14 09:07:47;;;;;;;0.45;0.20;;;5.50;89.50;;;;;;5035690;28;20060;-71
2022/02/14 09:10:15;;;;;;;1.23;0.10;;;5.50;89.50;;;;;;5034931;28;20376;-72
2022/02/14 09:12:46;;;;;;;0.63;0.20;;;5.60;89.60;;;;;;5035573;28;20053;-71
2022/02/14 09:15:13;;;;;;;0.68;0.25;;;5.70;89.30;;;;;;5036003;28;20053;-71
2022/02/14 09:17:42;;;;;;;0.50;0.10;;;5.70;89.10;;;;;;5036221;28;20399;-71
2022/02/14 09:20:10;;;;;;;0.50;0.38;;;5.70;89.10;;;;;;5018284;28;20050;-72
2022/02/14 09:22:38;;;;;;;0.90;0.35;;;5.70;89.10;;;;;;5035513;28;20465;-71
2022/02/14 09:25:06;;;;;;;0.13;0.10;;;5.70;89.10;;;;;;5035588;28;20054;-71
2022/02/14 09:27:34;;;;;;;0.20;0.10;;;5.70;89.20;;;;;;5035473;28;20049;-71
2022/02/14 09:30:02;;;;;;;0.70;0.20;;;5.70;89.20;;;;;;5034103;28;20041;-72
2022/02/14 09:32:30;;;;;;;0.10;0.10;;;5.70;88.50;;;;;;5033397;28;20052;-72
2022/02/14 09:34:57;;;;;;;0.98;0.20;;;5.70;88.60;;;;;;5031866;28;20056;-72
2022/02/14 09:37:25;;;;;;;0.60;0.20;;;5.70;88.50;;;;;;5034867;28;20049;-71
2022/02/14 09:39:52;;;;;;;0.20;0.20;;;5.70;88.70;;;;;;5035173;28;20056;-71
2022/02/14 09:42:20;;;;;;;1.33;0.40;;;5.70;88.80;;;;;;5035258;28;20049;-70
2022/02/14 09:44:54;;;;;;;0.32;0.30;;;5.70;89.00;;;;;;5035398;28;20045;-69
2022/02/14 09:47:25;;;;;;;3.83;0.40;;;5.70;89.20;;;;;;5034944;28;20057;-69
2022/02/14 09:49:57;;;;;;;0.17;0.10;;;5.70;89.30;;;;;;5035170;28;20056;-69
2022/02/14 09:52:24;;;;;;;1.80;0.30;;;5.70;89.10;;;;;;5035112;28;20053;-69
2022/02/14 09:54:52;;;;;;;3.03;0.30;;;5.50;88.00;;;;;;5035571;28;20049;-68
2022/02/14 09:57:21;;;;;;;1.38;0.25;;;5.30;88.50;;;;;;5035031;28;20060;-68
2022/02/14 09:59:48;;;;;;;3.10;0.52;;;5.10;89.00;;;;;;5033582;28;20064;-68
2022/02/14 10:02:20;;;;;;;7.93;0.50;;;5.00;89.40;;;;;;5034805;28;20053;-68
2022/02/14 10:05:00;;;;;;;0.43;0.30;;;5.00;89.60;;;;;;5034740;28;20076;-68
2022/02/14 10:07:39;;;;;;;1.85;0.10;;;5.00;89.70;;;;;;5034650;28;20042;-68
2022/02/14 10:10:11;;;;;;;0.50;0.10;;;5.00;89.70;;;;;;5034652;28;20061;-68
2022/02/14 10:12:42;;;;;;;0.38;0.00;;;4.90;89.50;;;;;;5034787;28;20049;-68
2022/02/14 10:15:10;;;;;;;0.13;0.10;;;4.90;89.50;;;;;;5034380;28;20403;-69
2022/02/14 10:17:47;;;;;;;0.77;0.00;;;4.90;89.50;;;;;;5034358;28;20052;-69
2022/02/14 10:20:19;;;;;;;0.10;0.10;;;4.90;89.60;;;;;;5034530;28;20045;-69
2022/02/14 10:22:55;;;;;;;0.13;0.10;;;4.90;89.70;;;;;;5034411;28;20057;-69
2022/02/14 10:25:25;;;;;;;1.25;0.00;;;5.00;89.80;;;;;;5034394;28;20057;-69
2022/02/14 10:27:53;;;;;;;0.40;0.10;;;5.00;89.90;;;;;;5034346;28;20052;-70
2022/02/14 10:30:21;;;;;;;0.32;0.32;;;5.00;89.90;;;;;;5016645;28;20506;-70
2022/02/14 10:32:53;;;;;;;0.47;0.20;;;5.00;89.90;;;;;;5034409;28;20057;-70
2022/02/14 10:35:23;;;;;;;0.88;0.35;;;5.00;90.00;;;;;;5034676;28;20046;-70
2022/02/14 10:37:53;;;;;;;1.02;0.40;;;5.10;90.10;;;;;;5034288;28;20068;-70
2022/02/14 10:40:39;;;;;;;1.05;0.20;;;5.10;90.20;;;;;;5032807;28;20053;-70
2022/02/14 10:43:09;;;;;;;0.65;0.22;;;5.20;90.30;;;;;;5033411;28;20388;-72
2022/02/14 10:45:37;;;;;;;1.02;0.30;;;5.30;90.50;;;;;;5032516;28;20057;-71
2022/02/14 10:48:14;;;;;;;2.50;0.40;;;5.30;90.50;;;;;;5044111;28;20071;-70
2022/02/14 10:50:42;;;;;;;2.38;0.60;;;5.40;90.60;;;;;;5052664;28;20049;-70
2022/02/14 10:53:16;;;;;;;3.03;0.82;;;5.50;90.80;;;;;;5052736;28;20048;-71
2022/02/14 10:55:54;;;;;;;3.67;0.90;;;5.70;90.70;;;;;;5052680;28;20053;-70
2022/02/14 10:58:29;;;;;;;2.40;0.90;;;5.80;90.60;;;;;;5052973;28;20390;-70
2022/02/14 11:00:57;;;;;;;3.08;0.95;;;5.80;90.40;;;;;;5050735;28;20052;-70
2022/02/14 11:03:25;;;;;;;2.40;1.60;;;5.80;90.40;;;;;;5052992;28;20045;-69
2022/02/14 11:05:53;;;;;;;6.25;1.58;;;5.80;90.30;;;;;;5051168;28;20060;-69
2022/02/14 11:08:21;;;;;;;6.15;1.90;;;5.70;90.30;;;;;;5033594;28;20052;-69
2022/02/14 11:10:52;;;;;;;4.50;1.38;;;5.70;90.30;;;;;;5033368;28;20064;-69
2022/02/14 11:13:25;;;;;;;3.17;1.30;;;5.60;90.40;;;;;;5033616;28;20052;-69
2022/02/14 11:15:58;;;;;;;4.90;1.40;;;5.50;90.50;;;;;;5033076;28;20056;-70
2022/02/14 11:18:39;;;;;;;5.63;1.55;;;5.50;90.50;;;;;;5033716;28;20491;-69
2022/02/14 11:21:07;;;;;;;3.03;1.25;;;5.40;90.60;;;;;;5033358;28;20064;-69
2022/02/14 11:23:50;;;;;;;1.75;1.40;;;5.40;90.60;;;;;;5033314;28;20395;-69
2022/02/14 11:26:36;;;;;;;3.92;1.80;;;5.40;90.70;;;;;;5033400;28;20057;-69
2022/02/14 11:29:33;;;;;;;2.88;2.05;;;5.30;90.70;;;;;;5033074;28;20395;-69
2022/02/14 11:32:20;;;;;;;4.80;1.95;;;5.40;90.80;;;;;;5033202;28;20514;-70
2022/02/14 11:34:52;;;;;;;3.13;1.90;;;5.40;90.80;;;;;;5033244;28;20050;-70
2022/02/14 11:37:20;;;;;;;3.47;2.08;;;5.40;90.70;;;;;;5032025;28;20597;-70
2022/02/14 11:39:47;;;;;;;3.85;2.08;;;5.40;90.70;;;;;;5033127;28;20061;-70
2022/02/14 11:42:15;;;;;;;3.72;1.40;;;5.40;90.70;;;;;;5033064;28;20058;-71
2022/02/14 11:44:44;;;;;;;1.65;1.10;;;5.50;90.70;;;;;;5032819;28;20523;-71
2022/02/14 11:47:16;;;;;;;2.10;0.90;;;5.50;90.70;;;;;;5032964;28;20046;-70
2022/02/14 11:49:46;;;;;;;9.27;1.42;;;5.50;90.70;;;;;;5032828;28;20553;-70
2022/02/14 11:52:39;;;;;;;2.80;1.30;;;5.50;90.70;;;;;;5031604;28;20052;-70
2022/02/14 11:55:08;;;;;;;1.23;0.80;;;5.50;90.70;;;;;;5032844;28;20418;-69
2022/02/14 11:57:48;;;;;;;2.20;1.45;;;5.50;90.70;;;;;;5032615;28;20068;-69
2022/02/14 12:00:15;;;;;;;6.05;2.00;;;5.50;90.80;;;;;;5032708;28;20053;-69
2022/02/14 12:03:00;;;;;;;3.17;2.17;;;5.50;90.70;;;;;;5032687;28;20052;-69
2022/02/14 12:05:50;;;;;;;5.10;2.80;;;5.50;90.80;;;;;;5033006;28;20394;-70
2022/02/14 12:08:19;;;;;;;3.95;2.38;;;5.50;90.80;;;;;;5031409;28;20050;-70
2022/02/14 12:10:47;;;;;;;4.93;2.30;;;5.50;90.90;;;;;;5032504;28;20068;-70
2022/02/14 12:13:17;;;;;;;5.85;1.90;;;5.50;91.00;;;;;;5036827;28;20643;-70
2022/02/14 12:21:07;;;;;;;2.90;1.70;;;5.80;91.20;;;;;;5017429;28;20057;-71
2022/02/14 12:24:11;;;;;;;6.82;2.00;;;6.10;91.10;;;;;;5032098;28;20042;-71
2022/02/14 12:26:40;;;;;;;4.50;1.98;;;6.20;90.90;;;;;;5030110;28;20056;-72
2022/02/14 12:32:14;;;;;;;6.22;1.90;;;6.60;90.70;;;;;;5029974;28;20048;-72
2022/02/14 12:34:45;;;;;;;2.08;1.60;;;6.80;90.40;;;;;;5030814;28;20072;-72
2022/02/14 12:37:16;;;;;;;2.80;1.10;;;7.00;90.20;;;;;;5023616;28;20040;-73
2022/02/14 12:39:50;;;;;;;1.48;0.95;;;7.20;89.80;;;;;;5042729;28;20048;-72
2022/02/14 12:42:26;;;;;;;2.15;1.17;;;7.20;89.20;;;;;;5051950;28;20048;-72
2022/02/14 12:44:58;;;;;;;1.88;1.13;;;7.20;89.10;;;;;;5011999;28;20049;-73
2022/02/14 12:47:28;;;;;;;5.07;0.90;;;7.10;89.00;;;;;;5011379;28;20049;-72
2022/02/14 12:50:16;;;;;;;1.23;1.10;;;7.10;89.00;;;;;;5011893;28;20049;-73
2022/02/14 12:52:47;;;;;;;3.83;1.30;;;7.10;89.10;;;;;;5011884;28;20403;-73
2022/02/14 12:55:22;;;;;;;8.80;1.88;;;7.10;88.90;;;;;;5019053;28;20058;-73
2022/02/14 12:57:52;;;;;;;5.35;2.13;;;7.00;89.10;;;;;;5031445;28;20372;-74
2022/02/14 13:00:21;;;;;;;29.75;3.92;;;7.10;89.00;;;;;;5030755;28;20152;-73
2022/02/14 13:02:56;;;;;;;4.25;2.28;;;7.00;89.00;;;;;;5030616;28;20056;-74
2022/02/14 13:05:24;;;;;;;3.40;1.80;;;6.90;89.00;;;;;;5031965;28;20041;-73
2022/02/14 13:07:51;;;;;;;4.18;1.23;;;6.80;89.20;;;;;;5031798;28;20050;-71
2022/02/14 13:10:20;;;;;;;0.57;0.38;;;6.70;89.10;;;;;;5031500;28;20053;-71
2022/02/14 13:13:00;;;;;;;3.05;0.63;;;6.60;89.10;;;;;;5031837;28;20052;-70
2022/02/14 13:15:28;;;;;;;2.28;0.40;;;6.50;89.00;;;;;;5012662;28;20049;-70
2022/02/14 13:17:59;;;;;;;3.03;0.90;;;6.30;89.00;;;;;;5012123;28;20061;-70
2022/02/14 13:20:27;;;;;;;2.25;0.45;;;6.30;89.20;;;;;;5027072;28;20057;-70